createdAt,value
2022-10-17T00:07:31.986Z,18.61
2022-10-17T00:17:35.707Z,18.54
2022-10-17T00:27:42.214Z,18.71
2022-10-17T00:37:45.320Z,18.57
2022-10-17T00:47:55.077Z,18.56
2022-10-17T00:57:59.046Z,18.64
2022-10-17T01:08:03.869Z,18.56
2022-10-17T01:18:17.058Z,18.55
2022-10-17T01:28:36.593Z,18.58
2022-10-17T01:38:48.299Z,18.54
2022-10-17T01:48:51.269Z,18.50
2022-10-17T01:59:01.536Z,18.57
2022-10-17T02:09:25.638Z,18.59
2022-10-17T02:19:41.665Z,18.49
2022-10-17T02:29:49.578Z,18.53
2022-10-17T02:39:56.206Z,18.52
2022-10-17T02:49:59.911Z,18.52
2022-10-17T03:00:10.028Z,18.49
2022-10-17T03:10:13.369Z,18.55
2022-10-17T03:20:17.699Z,18.54
2022-10-17T03:30:22.154Z,18.48
2022-10-17T03:40:28.522Z,18.51
2022-10-17T03:50:31.635Z,18.55
2022-10-17T04:00:38.069Z,18.47
2022-10-17T04:10:41.173Z,18.56
2022-10-17T04:20:45.507Z,18.54
2022-10-17T04:30:52.141Z,18.54
2022-10-17T04:41:00.152Z,18.53
2022-10-17T04:51:05.624Z,18.50
2022-10-17T05:01:18.237Z,18.43
2022-10-17T05:11:27.561Z,18.34
2022-10-17T05:31:36.629Z,18.39
2022-10-17T05:41:42.638Z,18.31
2022-10-17T05:51:45.659Z,18.25
2022-10-17T06:01:50.089Z,18.25
2022-10-17T06:11:53.364Z,18.09
2022-10-17T06:21:58.245Z,18.17
2022-10-17T06:32:03.326Z,18.19
2022-10-17T06:42:09.538Z,18.23
2022-10-17T06:52:32.936Z,18.39
2022-10-17T07:03:06.100Z,18.51
2022-10-17T07:13:12.846Z,18.83
2022-10-17T07:23:17.113Z,18.77
2022-10-17T07:33:20.418Z,18.79
2022-10-17T07:43:25.224Z,18.85
2022-10-17T07:53:29.430Z,18.95
2022-10-17T08:03:33.831Z,19.07
2022-10-17T08:13:37.274Z,19.32
2022-10-17T08:23:42.103Z,19.32
2022-10-17T08:33:45.206Z,19.47
2022-10-17T08:44:04.093Z,19.57
2022-10-17T08:54:15.914Z,19.74
2022-10-17T09:04:46.772Z,19.77
2022-10-17T09:15:09.593Z,19.98
2022-10-17T09:25:17.147Z,20.40
2022-10-17T09:35:21.993Z,20.83
2022-10-17T09:45:27.627Z,20.84
2022-10-17T09:55:39.667Z,20.68
2022-10-17T10:06:00.002Z,20.86
2022-10-17T10:16:17.321Z,21.32
2022-10-17T10:26:24.790Z,21.50
2022-10-17T10:36:42.939Z,21.68
2022-10-17T10:46:47.386Z,21.82
2022-10-17T10:56:54.369Z,22.19
2022-10-17T11:07:03.280Z,22.15
2022-10-17T11:17:14.088Z,22.03
2022-10-17T11:27:18.558Z,21.96
2022-10-17T11:37:24.571Z,21.98
2022-10-17T11:47:45.926Z,21.98
2022-10-17T11:57:59.429Z,21.97
2022-10-17T12:08:10.426Z,22.08
2022-10-17T12:18:18.384Z,21.95
2022-10-17T12:28:28.479Z,21.94
2022-10-17T12:38:31.385Z,21.95
2022-10-17T12:49:13.847Z,21.90
2022-10-17T12:59:22.445Z,21.92
2022-10-17T13:09:30.243Z,22.01
2022-10-17T13:19:42.046Z,22.03
2022-10-17T13:29:46.025Z,21.92
2022-10-17T13:39:55.581Z,21.81
2022-10-17T13:50:00.319Z,21.86
2022-10-17T14:00:11.798Z,21.91
2022-10-17T14:10:22.121Z,22.01
2022-10-17T14:30:57.256Z,22.13
2022-10-17T14:51:39.971Z,22.22
2022-10-17T15:01:54.818Z,22.26
2022-10-17T15:12:01.715Z,22.19
2022-10-17T15:22:05.942Z,22.11
2022-10-17T15:32:08.733Z,22.06
2022-10-17T15:42:13.087Z,22.01
2022-10-17T15:52:15.914Z,21.92
2022-10-17T16:02:22.032Z,21.89
2022-10-17T16:12:31.174Z,21.80
2022-10-17T16:22:36.935Z,21.75
2022-10-17T16:32:39.845Z,21.65
2022-10-17T16:42:44.700Z,21.68
2022-10-17T16:52:47.531Z,21.64
2022-10-17T17:02:51.799Z,21.56
2022-10-17T17:12:56.795Z,21.46
2022-10-17T17:23:00.962Z,21.37
2022-10-17T17:33:04.006Z,21.03
2022-10-17T17:43:09.155Z,21.06
2022-10-17T17:53:15.591Z,20.95
2022-10-17T18:03:23.411Z,20.85
2022-10-17T18:13:26.524Z,20.72
2022-10-17T18:23:30.853Z,20.83
2022-10-17T18:33:34.216Z,20.94
2022-10-17T18:43:40.216Z,20.83
2022-10-17T18:53:46.881Z,20.74
2022-10-17T19:03:54.413Z,20.69
2022-10-17T19:13:59.119Z,20.57
2022-10-17T19:24:05.343Z,20.36
2022-10-17T19:34:08.110Z,20.34
2022-10-17T19:44:12.801Z,20.45
2022-10-17T19:54:18.121Z,20.20
2022-10-17T20:04:23.960Z,20.29
2022-10-17T20:14:27.114Z,20.06
2022-10-17T20:24:31.430Z,19.89
2022-10-17T20:34:35.677Z,19.97
2022-10-17T20:44:40.060Z,19.73
2022-10-17T20:54:43.058Z,19.46
2022-10-17T21:04:48.092Z,19.42
2022-10-17T21:14:50.984Z,19.37
2022-10-17T21:24:55.199Z,19.34
2022-10-17T21:34:58.222Z,19.35
2022-10-17T21:45:07.468Z,19.26
2022-10-17T21:55:18.354Z,19.17
2022-10-17T22:05:22.707Z,19.20
2022-10-17T22:15:25.653Z,19.31
2022-10-17T22:25:30.006Z,19.32
2022-10-17T22:35:33.083Z,19.28
2022-10-17T22:45:37.386Z,19.10
2022-10-17T22:55:40.289Z,18.98
2022-10-17T23:05:45.075Z,19.21
2022-10-17T23:15:51.620Z,18.97
2022-10-17T23:25:56.360Z,18.97
2022-10-17T23:35:59.404Z,18.84
2022-10-17T23:46:04.817Z,18.66
2022-10-17T23:56:09.409Z,18.84
